createdAt,value
2023-04-19T00:00:58.152Z,9.1430
2023-04-19T00:01:59.624Z,9.0825
2023-04-19T00:03:01.332Z,9.0939
2023-04-19T00:04:03.060Z,9.0397
2023-04-19T00:05:05.351Z,9.0746
2023-04-19T00:06:07.097Z,9.0723
2023-04-19T00:07:08.478Z,9.0296
2023-04-19T00:08:09.938Z,9.0499
2023-04-19T00:09:11.304Z,9.1024
2023-04-19T00:10:12.701Z,9.1279
2023-04-19T00:11:14.092Z,9.1528
2023-04-19T00:12:15.476Z,9.1917
2023-04-19T00:13:16.875Z,9.2012
2023-04-19T00:14:18.389Z,9.1595
2023-04-19T00:15:19.918Z,9.0574
2023-04-19T00:16:21.389Z,9.0250
2023-04-19T00:17:22.842Z,9.0181
2023-04-19T00:18:24.329Z,9.0022
2023-04-19T00:19:25.749Z,8.9994
2023-04-19T00:20:27.408Z,9.0502
2023-04-19T00:21:29.080Z,9.0198
2023-04-19T00:22:30.526Z,9.0817
2023-04-19T00:23:31.997Z,9.1473
2023-04-19T00:24:33.436Z,9.0526
2023-04-19T00:25:34.890Z,9.0324
2023-04-19T00:26:36.282Z,8.9821
2023-04-19T00:27:37.638Z,8.9771
2023-04-19T00:28:39.034Z,8.9776
2023-04-19T00:29:40.422Z,9.0394
2023-04-19T00:30:41.855Z,9.1706
2023-04-19T00:31:43.255Z,9.1827
2023-04-19T00:32:44.674Z,9.0829
2023-04-19T00:33:46.027Z,9.0543
2023-04-19T00:34:47.414Z,8.9729
2023-04-19T00:35:48.753Z,9.0077
2023-04-19T00:36:50.144Z,8.9880
2023-04-19T00:37:51.548Z,8.9499
2023-04-19T00:38:52.959Z,8.9663
2023-04-19T00:39:54.344Z,8.9238
2023-04-19T00:40:55.730Z,8.9512
2023-04-19T00:41:57.072Z,8.9687
2023-04-19T00:42:58.478Z,8.9963
2023-04-19T00:43:59.841Z,9.0315
2023-04-19T00:45:01.409Z,8.9983
2023-04-19T00:46:02.838Z,9.0249
2023-04-19T00:47:04.226Z,9.0296
2023-04-19T00:48:05.865Z,9.1177
2023-04-19T00:49:07.213Z,9.0650
2023-04-19T00:50:08.610Z,9.0918
2023-04-19T00:51:09.983Z,9.0628
2023-04-19T00:52:11.400Z,9.1072
2023-04-19T00:53:12.801Z,9.1624
2023-04-19T00:54:14.443Z,9.1649
2023-04-19T00:55:16.298Z,9.0507
2023-04-19T00:56:17.697Z,9.0334
2023-04-19T00:57:19.060Z,9.0800
2023-04-19T00:58:20.412Z,9.0288
2023-04-19T00:59:21.756Z,8.9853
2023-04-19T01:00:23.145Z,8.9829
2023-04-19T01:01:24.510Z,8.9884
2023-04-19T01:02:25.930Z,8.9742
2023-04-19T01:03:27.889Z,8.9611
2023-04-19T01:04:29.734Z,8.9327
2023-04-19T01:05:31.153Z,8.9519
2023-04-19T01:06:32.508Z,8.9768
2023-04-19T01:07:33.944Z,9.0788
2023-04-19T01:08:35.309Z,9.0231
2023-04-19T01:09:36.708Z,9.0514
2023-04-19T01:10:38.045Z,8.9988
2023-04-19T01:11:40.782Z,8.9750
2023-04-19T01:12:41.436Z,8.9368
2023-04-19T01:13:42.803Z,8.9120
2023-04-19T01:14:44.202Z,8.8944
2023-04-19T01:15:45.620Z,8.9462
2023-04-19T01:16:46.995Z,8.9581
2023-04-19T01:17:48.399Z,8.8925
2023-04-19T01:18:49.808Z,8.8877
2023-04-19T01:19:51.202Z,8.8742
2023-04-19T01:20:52.589Z,8.8954
2023-04-19T01:21:54.038Z,8.9418
2023-04-19T01:22:55.393Z,8.8867
2023-04-19T01:23:56.973Z,8.8617
2023-04-19T01:24:58.365Z,8.9030
2023-04-19T01:25:59.885Z,8.8788
2023-04-19T01:27:01.317Z,8.8883
2023-04-19T01:28:02.814Z,8.9469
2023-04-19T01:29:04.230Z,8.9157
2023-04-19T01:30:05.573Z,8.9086
2023-04-19T01:31:06.960Z,8.8768
2023-04-19T01:32:08.277Z,8.9021
2023-04-19T01:33:09.618Z,8.8911
2023-04-19T01:34:10.983Z,8.9095
2023-04-19T01:35:12.328Z,8.9120
2023-04-19T01:36:13.673Z,8.9549
2023-04-19T01:37:15.010Z,8.9211
2023-04-19T01:38:16.497Z,8.8591
2023-04-19T01:39:18.870Z,8.8627
2023-04-19T01:40:20.301Z,8.9225
2023-04-19T01:41:21.643Z,8.8951
2023-04-19T01:42:23.101Z,8.8665
2023-04-19T01:43:24.522Z,8.8360
2023-04-19T01:44:25.913Z,8.8256
2023-04-19T01:45:27.315Z,8.8949
2023-04-19T01:46:28.888Z,8.8633
2023-04-19T01:47:30.308Z,8.8658
2023-04-19T01:48:31.758Z,8.8508
2023-04-19T01:49:33.146Z,8.8697
2023-04-19T01:50:34.591Z,8.8689
2023-04-19T01:51:36.013Z,8.8425
2023-04-19T01:52:37.485Z,8.7988
2023-04-19T01:53:38.920Z,8.8219
2023-04-19T01:54:40.287Z,8.8363
2023-04-19T01:55:41.742Z,8.8706
2023-04-19T01:56:43.209Z,8.8004
2023-04-19T01:57:44.609Z,8.8942
2023-04-19T01:58:46.057Z,8.8021
2023-04-19T01:59:47.430Z,8.7718
2023-04-19T02:00:48.919Z,8.7636
2023-04-19T02:01:50.348Z,8.8189
2023-04-19T02:02:51.989Z,8.7675
2023-04-19T02:03:53.598Z,8.7902
2023-04-19T02:04:55.526Z,8.8183
2023-04-19T02:05:56.963Z,8.7869
2023-04-19T02:06:58.431Z,8.7901
2023-04-19T02:07:59.876Z,8.7744
2023-04-19T02:09:01.258Z,8.7925
2023-04-19T02:10:02.773Z,8.7703
2023-04-19T02:11:04.221Z,8.7961
2023-04-19T02:12:05.623Z,8.7925
2023-04-19T02:13:07.139Z,8.8355
2023-04-19T02:14:08.542Z,8.8078
2023-04-19T02:15:09.969Z,8.8163
2023-04-19T02:16:11.550Z,8.8099
2023-04-19T02:17:13.037Z,8.8602
2023-04-19T02:18:14.423Z,8.8370
2023-04-19T02:19:15.875Z,8.7840
2023-04-19T02:20:17.299Z,8.7996
2023-04-19T02:21:18.724Z,8.7957
2023-04-19T02:22:20.147Z,8.8785
2023-04-19T02:23:21.608Z,8.8360
2023-04-19T02:24:23.014Z,8.8738
2023-04-19T02:25:24.467Z,8.8541
2023-04-19T02:26:26.030Z,8.8230
2023-04-19T02:27:27.489Z,8.8119
2023-04-19T02:28:28.888Z,8.8411
2023-04-19T02:29:30.382Z,8.8887
2023-04-19T02:30:31.858Z,8.9021
2023-04-19T02:31:33.300Z,8.8407
2023-04-19T02:32:34.790Z,8.8402
2023-04-19T02:33:36.127Z,8.7919
2023-04-19T02:34:37.599Z,8.8172
2023-04-19T02:35:38.966Z,8.8052
2023-04-19T02:36:40.347Z,8.7981
2023-04-19T02:37:41.829Z,8.8141
2023-04-19T02:38:43.190Z,8.8079
2023-04-19T02:39:44.595Z,8.8049
2023-04-19T02:40:46.035Z,8.7797
2023-04-19T02:41:47.558Z,8.8663
2023-04-19T02:42:48.963Z,8.9240
2023-04-19T02:43:50.411Z,8.9406
2023-04-19T02:44:51.995Z,8.9011
2023-04-19T02:45:53.476Z,8.8927
2023-04-19T02:46:54.893Z,8.9260
2023-04-19T02:47:56.369Z,8.8588
2023-04-19T02:48:57.939Z,8.8446
2023-04-19T02:49:59.328Z,8.8407
2023-04-19T02:51:00.773Z,8.8081
2023-04-19T02:52:02.241Z,8.8069
2023-04-19T02:53:03.785Z,8.7912
2023-04-19T02:54:05.273Z,8.7755
2023-04-19T02:55:06.659Z,8.8045
2023-04-19T02:56:08.073Z,8.8778
2023-04-19T02:57:09.526Z,8.8847
2023-04-19T02:58:10.921Z,8.8573
2023-04-19T02:59:12.370Z,8.8724
2023-04-19T03:00:13.861Z,8.8694
2023-04-19T03:01:15.643Z,8.8865
2023-04-19T03:02:17.118Z,8.8444
2023-04-19T03:03:18.593Z,8.8034
2023-04-19T03:04:19.998Z,8.8053
2023-04-19T03:05:21.445Z,8.8291
2023-04-19T03:06:22.858Z,8.7743
2023-04-19T03:07:24.378Z,8.8081
2023-04-19T03:08:25.799Z,8.7896
2023-04-19T03:09:27.227Z,8.7751
2023-04-19T03:10:28.685Z,8.7881
2023-04-19T03:11:30.091Z,8.8184
2023-04-19T03:12:31.473Z,8.8157
2023-04-19T03:13:32.968Z,8.8558
2023-04-19T03:14:34.362Z,8.7889
2023-04-19T03:15:35.815Z,8.7455
2023-04-19T03:16:37.252Z,8.7363
2023-04-19T03:17:38.697Z,8.7444
2023-04-19T03:18:40.131Z,8.7652
2023-04-19T03:19:41.609Z,8.7332
2023-04-19T03:20:43.058Z,8.7516
2023-04-19T03:21:44.519Z,8.7307
2023-04-19T03:22:45.982Z,8.7162
2023-04-19T03:23:47.380Z,8.7110
2023-04-19T03:24:48.787Z,8.7426
2023-04-19T03:25:50.250Z,8.7201
2023-04-19T03:26:51.725Z,8.7130
2023-04-19T03:27:53.155Z,8.6985
2023-04-19T03:28:54.660Z,8.7296
2023-04-19T03:29:56.179Z,8.7494
2023-04-19T03:30:57.676Z,8.7444
2023-04-19T03:31:59.113Z,8.7296
2023-04-19T03:33:00.520Z,8.7325
2023-04-19T03:34:01.940Z,8.7266
2023-04-19T03:35:03.348Z,8.7895
2023-04-19T03:36:04.797Z,8.7198
2023-04-19T03:37:06.190Z,8.7423
2023-04-19T03:38:07.632Z,8.7340
2023-04-19T03:39:09.082Z,8.7379
2023-04-19T03:40:10.503Z,8.7368
2023-04-19T03:41:11.949Z,8.7040
2023-04-19T03:42:13.420Z,8.7412
2023-04-19T03:43:14.839Z,8.7670
2023-04-19T03:44:16.432Z,8.7926
2023-04-19T03:45:18.194Z,8.8572
2023-04-19T03:46:19.649Z,8.7830
2023-04-19T03:47:21.253Z,8.8011
2023-04-19T03:48:22.837Z,8.7656
2023-04-19T03:49:24.294Z,8.7433
2023-04-19T03:50:25.737Z,8.7306
2023-04-19T03:51:27.158Z,8.7098
2023-04-19T03:52:28.567Z,8.7463
2023-04-19T03:53:29.970Z,8.7457
2023-04-19T03:54:31.375Z,8.7109
2023-04-19T03:55:32.841Z,8.7247
2023-04-19T03:56:34.438Z,8.7203
2023-04-19T03:57:35.863Z,8.7097
2023-04-19T03:58:37.381Z,8.7233
2023-04-19T03:59:38.800Z,8.7356
2023-04-19T04:00:40.258Z,8.7593
2023-04-19T04:01:41.895Z,8.7536
2023-04-19T04:02:43.837Z,8.7543
2023-04-19T04:03:45.634Z,8.7522
2023-04-19T04:04:47.486Z,8.7481
2023-04-19T04:05:48.929Z,8.7463
2023-04-19T04:06:50.406Z,8.7325
2023-04-19T04:07:51.808Z,8.7409
2023-04-19T04:08:53.199Z,8.7375
2023-04-19T04:09:54.618Z,8.7423
2023-04-19T04:10:56.026Z,8.7761
2023-04-19T04:11:57.410Z,8.7817
2023-04-19T04:12:58.899Z,8.7946
2023-04-19T04:14:00.392Z,8.7976
2023-04-19T04:15:01.863Z,8.7919
2023-04-19T04:16:03.290Z,8.7700
2023-04-19T04:17:04.716Z,8.8005
2023-04-19T04:18:08.566Z,8.8082
2023-04-19T04:19:07.910Z,8.8038
2023-04-19T04:20:09.328Z,8.7946
2023-04-19T04:21:10.717Z,8.8012
2023-04-19T04:22:12.163Z,8.7992
2023-04-19T04:23:13.566Z,8.7701
2023-04-19T04:24:15.144Z,8.8166
2023-04-19T04:25:16.686Z,8.7781
2023-04-19T04:26:18.086Z,8.8280
2023-04-19T04:27:19.584Z,8.8481
2023-04-19T04:28:21.274Z,8.8141
2023-04-19T04:29:22.735Z,8.7791
2023-04-19T04:30:26.554Z,8.7226
2023-04-19T04:31:24.258Z,8.7392
2023-04-19T04:32:25.750Z,8.7748
2023-04-19T04:33:27.232Z,8.7890
2023-04-19T04:34:28.724Z,8.7679
2023-04-19T04:35:30.199Z,8.7665
2023-04-19T04:36:31.645Z,8.7510
2023-04-19T04:37:33.084Z,8.7919
2023-04-19T04:38:34.576Z,8.7836
2023-04-19T04:39:35.978Z,8.7649
2023-04-19T04:40:37.383Z,8.7493
2023-04-19T04:41:38.828Z,8.7643
2023-04-19T04:42:40.295Z,8.8206
2023-04-19T04:43:41.944Z,8.8497
2023-04-19T04:44:43.381Z,8.7939
2023-04-19T04:45:44.862Z,8.7696
2023-04-19T04:46:46.331Z,8.8207
2023-04-19T04:47:47.806Z,8.8300
2023-04-19T04:48:49.279Z,8.8427
2023-04-19T04:49:50.696Z,8.8478
2023-04-19T04:50:52.113Z,8.8328
2023-04-19T04:51:53.560Z,8.8075
2023-04-19T04:52:54.972Z,8.7658
2023-04-19T04:53:56.516Z,8.7538
2023-04-19T04:54:57.978Z,8.8335
2023-04-19T04:55:59.672Z,8.7940
2023-04-19T04:57:01.189Z,8.8333
2023-04-19T04:58:02.614Z,8.8633
2023-04-19T04:59:04.000Z,8.8394
2023-04-19T05:00:05.435Z,8.8170
2023-04-19T05:01:06.888Z,8.8597
2023-04-19T05:02:08.469Z,8.8956
2023-04-19T05:03:10.060Z,8.9079
2023-04-19T05:04:11.587Z,8.9329
2023-04-19T05:05:13.086Z,8.9072
2023-04-19T05:06:14.501Z,8.9245
2023-04-19T05:07:16.173Z,8.9613
2023-04-19T05:08:17.594Z,8.9528
2023-04-19T05:09:18.998Z,8.9907
2023-04-19T05:10:20.457Z,8.9891
2023-04-19T05:11:21.885Z,8.9887
2023-04-19T05:12:23.367Z,8.9893
2023-04-19T05:13:24.829Z,8.9220
2023-04-19T05:14:26.280Z,8.8828
2023-04-19T05:15:27.709Z,8.9322
2023-04-19T05:16:29.310Z,8.9607
2023-04-19T05:17:30.825Z,8.9353
2023-04-19T05:18:32.213Z,8.9157
2023-04-19T05:19:33.654Z,8.9235
2023-04-19T05:20:35.089Z,8.9233
2023-04-19T05:21:36.577Z,8.9383
2023-04-19T05:22:37.978Z,8.9249
2023-04-19T05:23:39.453Z,8.9064
2023-04-19T05:24:42.375Z,8.9357
2023-04-19T05:25:41.485Z,8.8458
2023-04-19T05:26:42.883Z,8.8529
2023-04-19T05:27:44.308Z,8.8683
2023-04-19T05:28:45.754Z,8.8858
2023-04-19T05:29:47.175Z,8.9512
2023-04-19T05:30:48.660Z,8.9431
2023-04-19T05:31:50.101Z,8.9963
2023-04-19T05:32:51.554Z,9.0143
2023-04-19T05:33:53.047Z,8.9603
2023-04-19T05:34:54.529Z,8.9742
2023-04-19T05:35:55.947Z,8.9893
2023-04-19T05:36:57.397Z,9.0285
2023-04-19T05:37:58.821Z,9.0093
2023-04-19T05:39:00.220Z,9.0036
2023-04-19T05:40:01.667Z,8.9950
2023-04-19T05:41:03.048Z,8.9523
2023-04-19T05:42:04.462Z,8.9822
2023-04-19T05:43:05.870Z,8.9139
2023-04-19T05:44:07.281Z,8.9705
2023-04-19T05:45:08.679Z,8.9848
2023-04-19T05:46:10.165Z,9.0041
2023-04-19T05:47:11.596Z,8.9908
2023-04-19T05:48:12.987Z,9.0672
2023-04-19T05:49:14.450Z,9.0884
2023-04-19T05:50:15.845Z,9.0866
2023-04-19T05:51:17.284Z,9.1233
2023-04-19T05:52:18.686Z,9.1299
2023-04-19T05:53:20.097Z,9.0924
2023-04-19T05:54:21.505Z,9.1201
2023-04-19T05:55:23.009Z,9.1553
2023-04-19T05:56:24.440Z,9.1302
2023-04-19T05:57:25.825Z,9.0565
2023-04-19T05:58:27.254Z,9.0348
2023-04-19T05:59:28.683Z,9.0226
2023-04-19T06:00:30.083Z,9.0104
2023-04-19T06:01:31.514Z,8.9895
2023-04-19T06:02:33.133Z,8.9795
2023-04-19T06:03:34.953Z,8.9872
2023-04-19T06:04:37.375Z,9.0313
2023-04-19T06:05:39.378Z,9.0391
2023-04-19T06:06:40.801Z,9.0317
2023-04-19T06:07:47.246Z,8.9904
2023-04-19T06:08:44.282Z,9.0403
2023-04-19T06:09:45.693Z,9.0565
2023-04-19T06:10:54.510Z,9.0940
2023-04-19T06:11:51.201Z,9.1196
2023-04-19T06:12:50.518Z,9.2082
2023-04-19T06:13:51.970Z,9.1943
2023-04-19T06:14:53.399Z,9.1523
2023-04-19T06:15:54.919Z,9.1810
2023-04-19T06:16:56.304Z,9.1406
2023-04-19T06:17:59.776Z,9.1492
2023-04-19T06:18:58.881Z,9.1893
2023-04-19T06:20:00.365Z,9.1746
2023-04-19T06:21:01.775Z,9.1793
2023-04-19T06:22:03.194Z,9.1646
2023-04-19T06:23:04.614Z,9.1942
2023-04-19T06:24:06.076Z,9.1957
2023-04-19T06:25:07.521Z,9.1994
2023-04-19T06:26:09.047Z,9.1904
2023-04-19T06:27:10.479Z,9.1593
2023-04-19T06:28:11.882Z,9.1038
2023-04-19T06:29:13.277Z,9.1225
2023-04-19T06:30:14.706Z,9.0909
2023-04-19T06:31:16.099Z,9.0876
2023-04-19T06:32:17.580Z,9.1274
2023-04-19T06:33:18.995Z,9.1510
2023-04-19T06:34:20.412Z,9.1506
2023-04-19T06:35:21.811Z,9.1718
2023-04-19T06:36:23.239Z,9.1805
2023-04-19T06:37:24.691Z,9.1998
2023-04-19T06:38:26.130Z,9.1865
2023-04-19T06:39:27.548Z,9.2196
2023-04-19T06:40:29.036Z,9.1727
2023-04-19T06:41:30.530Z,9.1588
2023-04-19T06:42:31.982Z,9.2156
2023-04-19T06:43:33.398Z,9.2252
2023-04-19T06:44:34.943Z,9.1608
2023-04-19T06:45:36.456Z,9.2128
2023-04-19T06:46:37.894Z,9.2680
2023-04-19T06:47:39.366Z,9.3576
2023-04-19T06:48:40.803Z,9.3465
2023-04-19T06:49:42.369Z,9.2966
2023-04-19T06:50:43.835Z,9.3457
2023-04-19T06:51:45.278Z,9.2756
2023-04-19T06:52:46.751Z,9.3253
2023-04-19T06:53:48.202Z,9.3218
2023-04-19T06:54:49.816Z,9.2728
2023-04-19T06:55:51.261Z,9.3613
2023-04-19T06:56:52.727Z,9.3968
2023-04-19T06:57:54.229Z,9.3420
2023-04-19T06:58:55.680Z,9.3593
2023-04-19T06:59:57.154Z,9.3486
2023-04-19T07:00:58.674Z,9.2712
2023-04-19T07:02:00.213Z,9.2845
2023-04-19T07:03:01.869Z,9.2910
2023-04-19T07:04:03.874Z,9.4043
2023-04-19T07:05:06.093Z,9.3613
2023-04-19T07:06:07.519Z,9.4341
2023-04-19T07:07:08.942Z,9.4309
2023-04-19T07:08:10.394Z,9.4316
2023-04-19T07:09:11.836Z,9.3115
2023-04-19T07:10:13.318Z,9.3066
2023-04-19T07:11:14.756Z,9.2916
2023-04-19T07:12:16.266Z,9.2812
2023-04-19T07:13:17.718Z,9.2764
2023-04-19T07:14:19.334Z,9.2780
2023-04-19T07:15:20.797Z,9.3617
2023-04-19T07:16:22.464Z,9.3275
2023-04-19T07:17:24.010Z,9.3170
2023-04-19T07:18:25.565Z,9.3172
2023-04-19T07:19:27.059Z,9.3232
2023-04-19T07:20:28.720Z,9.3428
2023-04-19T07:21:30.248Z,9.4230
2023-04-19T07:22:31.774Z,9.4039
2023-04-19T07:23:33.243Z,9.5472
2023-04-19T07:24:34.663Z,9.6105
2023-04-19T07:25:36.125Z,9.6484
2023-04-19T07:26:37.630Z,9.6966
2023-04-19T07:27:39.043Z,9.6768
2023-04-19T07:28:40.509Z,9.6184
2023-04-19T07:29:41.989Z,9.5509
2023-04-19T07:30:43.450Z,9.5292
2023-04-19T07:31:44.947Z,9.4646
2023-04-19T07:32:46.555Z,9.4531
2023-04-19T07:33:48.094Z,9.4355
2023-04-19T07:34:49.561Z,9.5551
2023-04-19T07:35:51.221Z,9.6903
2023-04-19T07:36:52.714Z,9.6671
2023-04-19T07:37:57.264Z,9.5861
2023-04-19T07:38:58.901Z,9.6559
2023-04-19T07:40:01.238Z,9.5473
2023-04-19T07:41:02.751Z,9.4960
2023-04-19T07:42:04.259Z,9.4999
2023-04-19T07:43:05.796Z,9.6525
2023-04-19T07:44:07.356Z,9.7188
2023-04-19T07:45:08.809Z,9.6706
2023-04-19T07:46:10.299Z,9.6500
2023-04-19T07:47:11.758Z,9.6088
2023-04-19T07:48:13.251Z,9.7185
2023-04-19T07:49:14.713Z,9.6886
2023-04-19T07:50:16.297Z,9.6637
2023-04-19T07:51:17.831Z,9.5965
2023-04-19T07:52:19.272Z,9.6616
2023-04-19T07:53:20.721Z,9.6007
2023-04-19T07:54:22.137Z,9.7312
2023-04-19T07:55:23.648Z,9.6781
2023-04-19T07:56:25.091Z,9.6410
2023-04-19T07:57:26.618Z,9.5828
2023-04-19T07:58:28.090Z,9.6916
2023-04-19T07:59:29.602Z,9.8016
2023-04-19T08:00:31.023Z,9.6669
2023-04-19T08:01:32.840Z,9.6316
2023-04-19T08:02:34.787Z,9.6813
2023-04-19T08:03:36.481Z,9.7082
2023-04-19T08:04:38.548Z,9.6838
2023-04-19T08:05:40.417Z,9.6205
2023-04-19T08:06:41.975Z,9.6363
2023-04-19T08:07:43.478Z,9.6137
2023-04-19T08:08:44.930Z,9.6403
2023-04-19T08:09:46.476Z,9.7009
2023-04-19T08:10:47.932Z,9.7100
2023-04-19T08:11:49.447Z,9.7910
2023-04-19T08:14:04.558Z,9.7799
2023-04-19T08:15:02.661Z,9.8806
2023-04-19T08:17:22.050Z,9.9316
2023-04-19T08:18:01.119Z,9.8658
2023-04-19T08:19:02.608Z,9.8880
2023-04-19T08:20:04.100Z,9.9735
2023-04-19T08:21:05.538Z,9.9254
2023-04-19T08:22:07.014Z,9.8616
2023-04-19T08:23:20.363Z,9.8234
2023-04-19T08:24:10.483Z,9.8688
2023-04-19T08:25:11.900Z,10.0415
2023-04-19T08:26:13.378Z,9.9279
2023-04-19T08:27:14.881Z,10.0330
2023-04-19T08:28:16.354Z,9.9708
2023-04-19T08:29:17.945Z,10.0394
2023-04-19T08:30:19.595Z,10.2448
2023-04-19T08:31:21.056Z,10.2728
2023-04-19T08:32:22.552Z,10.2566
2023-04-19T08:33:24.040Z,10.3654
2023-04-19T08:34:25.469Z,10.2457
2023-04-19T08:35:26.908Z,10.2326
2023-04-19T08:36:37.104Z,10.2252
2023-04-19T08:37:30.451Z,10.2497
2023-04-19T08:38:31.975Z,10.2420
2023-04-19T08:39:34.262Z,10.2204
2023-04-19T08:40:33.545Z,10.1967
2023-04-19T08:41:34.999Z,10.2037
2023-04-19T08:42:37.249Z,10.1996
2023-04-19T08:43:40.486Z,10.3654
2023-04-19T08:44:53.795Z,10.2968
2023-04-19T08:45:43.007Z,10.3021
2023-04-19T08:46:44.421Z,10.3209
2023-04-19T08:47:58.665Z,10.2968
2023-04-19T08:48:47.942Z,10.3039
2023-04-19T08:49:56.300Z,10.4510
2023-04-19T08:51:04.446Z,10.3206
2023-04-19T08:51:53.494Z,10.3358
2023-04-19T08:52:59.053Z,10.3084
2023-04-19T08:53:56.975Z,10.3530
2023-04-19T08:54:58.471Z,10.2741
2023-04-19T08:56:10.023Z,10.3441
2023-04-19T08:57:01.958Z,10.4112
2023-04-19T08:58:04.197Z,10.3306
2023-04-19T08:59:19.253Z,10.4007
2023-04-19T09:00:06.619Z,10.4489
2023-04-19T09:01:08.301Z,10.4357
2023-04-19T09:02:08.733Z,10.4287
2023-04-19T09:03:10.646Z,10.1607
2023-04-19T09:05:13.378Z,10.0951
2023-04-19T09:06:15.293Z,10.0404
2023-04-19T09:07:16.842Z,10.0326
2023-04-19T09:08:18.297Z,10.0538
2023-04-19T09:10:21.576Z,10.1028
2023-04-19T09:11:23.085Z,10.2078
2023-04-19T09:12:24.537Z,10.1996
2023-04-19T09:13:26.032Z,10.2226
2023-04-19T09:14:27.467Z,10.2158
2023-04-19T09:15:28.940Z,10.2462
2023-04-19T09:16:30.414Z,10.2879
2023-04-19T09:17:31.888Z,10.4757
2023-04-19T09:18:35.933Z,10.4693
2023-04-19T09:19:35.372Z,10.7677
2023-04-19T09:20:36.840Z,10.8379
2023-04-19T09:21:38.270Z,10.9912
2023-04-19T09:22:39.684Z,10.8774
2023-04-19T09:23:41.148Z,10.7503
2023-04-19T09:26:06.280Z,10.8027
2023-04-19T09:26:46.233Z,10.8158
2023-04-19T09:27:47.669Z,10.7792
2023-04-19T09:28:49.081Z,10.7594
2023-04-19T09:29:50.496Z,10.7532
2023-04-19T09:31:00.668Z,10.8294
2023-04-19T09:31:54.092Z,10.6025
2023-04-19T09:32:55.568Z,10.5267
2023-04-19T09:33:56.983Z,10.5428
2023-04-19T09:34:58.454Z,10.6182
2023-04-19T09:35:59.902Z,10.6885
2023-04-19T09:37:12.177Z,10.7775
2023-04-19T09:38:06.721Z,10.6588
2023-04-19T09:39:05.934Z,10.7418
2023-04-19T09:40:07.381Z,10.7523
2023-04-19T09:41:08.800Z,10.8356
2023-04-19T09:42:10.260Z,11.1034
2023-04-19T09:44:50.198Z,11.0301
2023-04-19T09:46:17.344Z,11.1766
2023-04-19T09:47:18.716Z,10.9642
2023-04-19T09:48:20.159Z,10.9419
2023-04-19T09:49:33.547Z,10.9299
2023-04-19T09:50:27.288Z,10.8292
2023-04-19T09:51:23.753Z,10.9595
2023-04-19T09:52:25.150Z,10.9163
2023-04-19T09:53:26.528Z,10.8588
2023-04-19T09:54:27.941Z,10.7903
2023-04-19T09:55:31.721Z,10.8296
2023-04-19T09:56:31.350Z,10.9265
2023-04-19T09:57:32.766Z,10.9293
2023-04-19T09:59:35.919Z,10.7668
2023-04-19T10:00:47.996Z,10.8958
2023-04-19T10:01:39.368Z,10.8138
2023-04-19T10:02:40.949Z,10.8598
2023-04-19T10:03:42.619Z,11.0849
2023-04-19T10:05:46.317Z,10.9967
2023-04-19T10:07:07.403Z,11.0142
2023-04-19T10:07:49.874Z,11.0643
2023-04-19T10:08:51.621Z,10.9515
2023-04-19T10:09:55.023Z,10.8630
2023-04-19T10:10:55.236Z,10.9529
2023-04-19T10:12:03.764Z,11.0236
2023-04-19T10:13:15.891Z,11.1957
2023-04-19T10:14:00.900Z,11.1615
2023-04-19T10:15:02.313Z,10.9938
2023-04-19T10:16:15.502Z,11.1249
2023-04-19T10:17:05.794Z,11.1728
2023-04-19T10:18:07.413Z,11.1885
2023-04-19T10:19:10.054Z,11.1177
2023-04-19T10:20:09.224Z,10.8761
2023-04-19T10:21:10.608Z,10.9790
2023-04-19T10:22:11.990Z,11.0130
2023-04-19T10:23:13.487Z,11.1098
2023-04-19T10:24:14.893Z,11.0619
2023-04-19T10:25:16.356Z,11.1367
2023-04-19T10:26:17.765Z,11.2283
2023-04-19T10:27:19.216Z,11.2430
2023-04-19T10:28:20.647Z,11.2549
2023-04-19T10:29:22.074Z,11.3256
2023-04-19T10:30:23.517Z,11.2083
2023-04-19T10:31:24.912Z,11.4027
2023-04-19T10:32:26.380Z,11.3941
2023-04-19T10:33:27.898Z,11.5367
2023-04-19T10:34:29.350Z,11.4198
2023-04-19T10:35:30.753Z,11.5969
2023-04-19T10:36:32.189Z,11.2949
2023-04-19T10:37:33.793Z,11.1315
2023-04-19T10:38:35.329Z,11.2143
2023-04-19T10:39:36.794Z,11.4091
2023-04-19T10:40:38.178Z,11.4977
2023-04-19T10:41:39.654Z,11.4876
2023-04-19T10:42:41.037Z,11.2758
2023-04-19T10:43:42.477Z,11.1279
2023-04-19T10:44:43.866Z,11.0694
2023-04-19T10:45:45.313Z,11.1317
2023-04-19T10:46:46.707Z,11.0784
2023-04-19T10:47:48.195Z,11.0858
2023-04-19T10:48:49.701Z,10.8113
2023-04-19T10:49:51.181Z,10.7894
2023-04-19T10:50:52.634Z,10.9112
2023-04-19T10:51:54.059Z,10.8972
2023-04-19T10:52:55.484Z,10.9589
2023-04-19T10:53:56.940Z,10.9504
2023-04-19T10:54:58.374Z,10.9555
2023-04-19T10:55:59.779Z,11.0571
2023-04-19T10:57:01.201Z,11.0164
2023-04-19T10:58:02.602Z,11.0446
2023-04-19T10:59:04.036Z,11.0467
2023-04-19T11:00:05.471Z,11.1124
2023-04-19T11:01:06.889Z,11.0517
2023-04-19T11:02:08.395Z,11.1080
2023-04-19T11:03:10.086Z,11.1887
2023-04-19T11:04:11.902Z,11.2532
2023-04-19T11:05:13.603Z,11.1799
2023-04-19T11:06:15.014Z,11.1864
2023-04-19T11:07:16.386Z,11.1966
2023-04-19T11:08:17.799Z,11.3653
2023-04-19T11:09:19.260Z,11.3112
2023-04-19T11:10:20.719Z,11.3783
2023-04-19T11:11:22.143Z,11.4336
2023-04-19T11:12:23.597Z,11.3812
2023-04-19T11:13:25.039Z,11.4790
2023-04-19T11:14:26.493Z,11.5021
2023-04-19T11:15:27.969Z,11.4598
2023-04-19T11:16:42.434Z,11.4651
2023-04-19T11:17:31.598Z,11.4680
2023-04-19T11:18:33.301Z,11.4891
2023-04-19T11:19:34.683Z,11.4448
2023-04-19T11:20:36.157Z,11.4427
2023-04-19T11:21:37.554Z,11.4749
2023-04-19T11:22:39.052Z,11.3574
2023-04-19T11:23:40.455Z,11.4242
2023-04-19T11:24:41.873Z,11.6839
2023-04-19T11:25:43.296Z,11.9078
2023-04-19T11:26:44.752Z,11.8461
2023-04-19T11:27:46.230Z,11.8713
2023-04-19T11:28:47.680Z,11.8887
2023-04-19T11:29:49.135Z,11.8083
2023-04-19T11:30:50.622Z,11.8752
2023-04-19T11:31:52.137Z,11.8644
2023-04-19T11:32:53.666Z,11.9326
2023-04-19T11:33:55.439Z,11.6610
2023-04-19T11:34:57.069Z,11.6811
2023-04-19T11:35:58.509Z,11.7437
2023-04-19T11:36:59.938Z,11.8338
2023-04-19T11:38:01.428Z,11.8693
2023-04-19T11:39:02.898Z,11.7441
2023-04-19T11:40:05.104Z,11.6578
2023-04-19T11:41:06.908Z,11.4736
2023-04-19T11:42:08.340Z,11.3343
2023-04-19T11:43:09.710Z,11.3313
2023-04-19T11:44:11.159Z,11.3725
2023-04-19T11:45:25.897Z,11.3718
2023-04-19T11:46:14.737Z,11.3199
2023-04-19T11:47:16.251Z,11.1882
2023-04-19T11:48:17.888Z,11.2088
2023-04-19T11:49:19.348Z,11.3084
2023-04-19T11:50:20.831Z,11.4303
2023-04-19T11:51:22.460Z,11.4021
2023-04-19T11:52:23.913Z,11.5449
2023-04-19T11:53:25.371Z,11.4609
2023-04-19T11:54:26.854Z,11.5948
2023-04-19T11:55:28.272Z,11.6337
2023-04-19T11:56:29.732Z,11.7755
2023-04-19T11:57:31.183Z,11.7476
2023-04-19T11:58:32.617Z,11.7650
2023-04-19T11:59:34.064Z,11.8773
2023-04-19T12:00:35.524Z,11.8211
2023-04-19T12:01:36.918Z,11.8053
2023-04-19T12:02:38.610Z,11.7022
2023-04-19T12:03:40.335Z,11.9201
2023-04-19T12:04:42.205Z,11.8626
2023-04-19T12:05:44.146Z,11.9520
2023-04-19T12:06:45.666Z,11.9085
2023-04-19T12:07:47.124Z,12.1457
2023-04-19T12:08:48.575Z,12.2261
2023-04-19T12:09:50.032Z,12.2597
2023-04-19T12:10:51.519Z,12.3551
2023-04-19T12:11:52.940Z,12.2523
2023-04-19T12:12:54.383Z,12.1501
2023-04-19T12:13:55.813Z,11.7629
2023-04-19T12:14:57.289Z,11.5879
2023-04-19T12:15:58.758Z,11.7539
2023-04-19T12:17:00.322Z,11.7801
2023-04-19T12:18:01.876Z,11.8803
2023-04-19T12:19:03.476Z,11.6333
2023-04-19T12:20:05.027Z,11.7995
2023-04-19T12:21:06.465Z,11.7541
2023-04-19T12:22:07.921Z,11.6206
2023-04-19T12:23:09.401Z,11.4600
2023-04-19T12:24:10.918Z,11.4247
2023-04-19T12:25:12.404Z,11.4366
2023-04-19T12:26:13.839Z,11.5303
2023-04-19T12:27:15.359Z,11.5043
2023-04-19T12:28:16.836Z,11.5299
2023-04-19T12:29:18.385Z,11.3408
2023-04-19T12:30:19.836Z,11.4238
2023-04-19T12:31:21.250Z,11.5123
2023-04-19T12:32:22.733Z,11.4319
2023-04-19T12:33:24.240Z,11.4099
2023-04-19T12:34:25.687Z,11.5349
2023-04-19T12:35:27.174Z,11.5013
2023-04-19T12:36:28.688Z,11.3488
2023-04-19T12:37:30.153Z,11.3088
2023-04-19T12:38:31.615Z,11.3385
2023-04-19T12:39:33.129Z,11.2794
2023-04-19T12:40:34.789Z,11.3504
2023-04-19T12:41:36.278Z,11.3314
2023-04-19T12:42:37.730Z,11.2019
2023-04-19T12:43:39.199Z,11.0925
2023-04-19T12:44:40.697Z,11.1027
2023-04-19T12:45:42.256Z,11.0526
2023-04-19T12:46:43.785Z,11.0113
2023-04-19T12:47:45.290Z,11.0922
2023-04-19T12:48:46.814Z,11.0273